sensor_id;sensor_type;location;lat;lon;timestamp;P1;durP1;ratioP1;P2;durP2;ratioP2
50309;SDS011;36207;51.850;21.698;2022-09-01T00:01:49;4.80;;;2.40;;
50309;SDS011;36207;51.850;21.698;2022-09-01T00:04:18;5.50;;;2.60;;
50309;SDS011;36207;51.850;21.698;2022-09-01T00:06:47;5.20;;;2.80;;
50309;SDS011;36207;51.850;21.698;2022-09-01T00:09:15;3.50;;;2.70;;
50309;SDS011;36207;51.850;21.698;2022-09-01T00:11:45;4.80;;;2.70;;
50309;SDS011;36207;51.850;21.698;2022-09-01T00:14:13;3.80;;;2.40;;
50309;SDS011;36207;51.850;21.698;2022-09-01T00:16:41;4.40;;;2.60;;
50309;SDS011;36207;51.850;21.698;2022-09-01T00:19:07;4.30;;;2.20;;
50309;SDS011;36207;51.850;21.698;2022-09-01T00:21:39;4.10;;;2.20;;
50309;SDS011;36207;51.850;21.698;2022-09-01T00:24:08;4.40;;;2.50;;
50309;SDS011;36207;51.850;21.698;2022-09-01T00:26:36;5.40;;;2.70;;
50309;SDS011;36207;51.850;21.698;2022-09-01T00:29:03;4.90;;;2.20;;
50309;SDS011;36207;51.850;21.698;2022-09-01T00:31:31;4.60;;;2.50;;
50309;SDS011;36207;51.850;21.698;2022-09-01T00:33:58;5.80;;;2.90;;
50309;SDS011;36207;51.850;21.698;2022-09-01T00:36:25;3.80;;;2.80;;
50309;SDS011;36207;51.850;21.698;2022-09-01T00:38:52;4.80;;;2.90;;
50309;SDS011;36207;51.850;21.698;2022-09-01T00:41:20;3.50;;;2.70;;
50309;SDS011;36207;51.850;21.698;2022-09-01T00:43:50;3.90;;;2.50;;
50309;SDS011;36207;51.850;21.698;2022-09-01T00:46:21;4.10;;;2.40;;
50309;SDS011;36207;51.850;21.698;2022-09-01T00:48:55;4.70;;;2.70;;
50309;SDS011;36207;51.850;21.698;2022-09-01T00:51:26;5.80;;;2.40;;
50309;SDS011;36207;51.850;21.698;2022-09-01T00:53:53;5.80;;;2.60;;
50309;SDS011;36207;51.850;21.698;2022-09-01T00:56:22;6.40;;;2.70;;
50309;SDS011;36207;51.850;21.698;2022-09-01T00:58:49;5.80;;;2.70;;
50309;SDS011;36207;51.850;21.698;2022-09-01T01:01:17;4.40;;;2.40;;
50309;SDS011;36207;51.850;21.698;2022-09-01T01:03:44;4.90;;;2.30;;
50309;SDS011;36207;51.850;21.698;2022-09-01T01:06:12;5.00;;;2.50;;
50309;SDS011;36207;51.850;21.698;2022-09-01T01:08:45;4.20;;;2.40;;
50309;SDS011;36207;51.850;21.698;2022-09-01T01:11:22;3.60;;;2.10;;
50309;SDS011;36207;51.850;21.698;2022-09-01T01:13:58;4.50;;;2.10;;
50309;SDS011;36207;51.850;21.698;2022-09-01T01:16:41;5.80;;;2.80;;
50309;SDS011;36207;51.850;21.698;2022-09-01T01:19:22;5.50;;;2.50;;
50309;SDS011;36207;51.850;21.698;2022-09-01T01:22:17;3.70;;;2.40;;
50309;SDS011;36207;51.850;21.698;2022-09-01T01:25:09;3.90;;;2.40;;
50309;SDS011;36207;51.850;21.698;2022-09-01T01:27:37;3.40;;;2.30;;
50309;SDS011;36207;51.850;21.698;2022-09-01T01:30:07;3.50;;;2.30;;
50309;SDS011;36207;51.850;21.698;2022-09-01T01:32:37;5.20;;;2.70;;
50309;SDS011;36207;51.850;21.698;2022-09-01T01:35:09;4.50;;;2.50;;
50309;SDS011;36207;51.850;21.698;2022-09-01T01:37:40;3.50;;;2.50;;
50309;SDS011;36207;51.850;21.698;2022-09-01T01:40:15;3.50;;;2.30;;
50309;SDS011;36207;51.850;21.698;2022-09-01T01:42:45;2.80;;;2.20;;
50309;SDS011;36207;51.850;21.698;2022-09-01T01:45:14;4.80;;;2.30;;
50309;SDS011;36207;51.850;21.698;2022-09-01T01:47:43;4.10;;;2.30;;
50309;SDS011;36207;51.850;21.698;2022-09-01T01:50:12;3.70;;;2.20;;
50309;SDS011;36207;51.850;21.698;2022-09-01T01:52:40;4.90;;;2.50;;
50309;SDS011;36207;51.850;21.698;2022-09-01T01:55:08;4.70;;;2.50;;
50309;SDS011;36207;51.850;21.698;2022-09-01T01:57:40;2.90;;;2.30;;
50309;SDS011;36207;51.850;21.698;2022-09-01T02:00:19;3.30;;;1.90;;
50309;SDS011;36207;51.850;21.698;2022-09-01T02:02:48;4.50;;;2.60;;
50309;SDS011;36207;51.850;21.698;2022-09-01T02:05:25;2.40;;;2.10;;
50309;SDS011;36207;51.850;21.698;2022-09-01T02:07:57;7.40;;;2.80;;
50309;SDS011;36207;51.850;21.698;2022-09-01T02:10:31;3.60;;;2.60;;
50309;SDS011;36207;51.850;21.698;2022-09-01T02:13:12;2.80;;;2.30;;
50309;SDS011;36207;51.850;21.698;2022-09-01T02:15:48;3.40;;;2.70;;
50309;SDS011;36207;51.850;21.698;2022-09-01T02:18:23;3.50;;;2.30;;
50309;SDS011;36207;51.850;21.698;2022-09-01T02:20:53;5.40;;;2.60;;
50309;SDS011;36207;51.850;21.698;2022-09-01T02:23:24;4.90;;;2.80;;
50309;SDS011;36207;51.850;21.698;2022-09-01T02:25:54;3.30;;;2.50;;
50309;SDS011;36207;51.850;21.698;2022-09-01T02:28:25;3.80;;;2.50;;
50309;SDS011;36207;51.850;21.698;2022-09-01T02:30:53;4.10;;;2.40;;
50309;SDS011;36207;51.850;21.698;2022-09-01T02:33:20;3.10;;;2.30;;
50309;SDS011;36207;51.850;21.698;2022-09-01T02:35:49;4.00;;;2.50;;
50309;SDS011;36207;51.850;21.698;2022-09-01T02:38:17;5.20;;;2.60;;
50309;SDS011;36207;51.850;21.698;2022-09-01T02:40:46;4.40;;;2.60;;
50309;SDS011;36207;51.850;21.698;2022-09-01T02:43:14;3.00;;;2.30;;
50309;SDS011;36207;51.850;21.698;2022-09-01T02:45:46;4.50;;;2.90;;
50309;SDS011;36207;51.850;21.698;2022-09-01T02:48:26;3.60;;;2.50;;
50309;SDS011;36207;51.850;21.698;2022-09-01T02:51:01;5.20;;;2.60;;
50309;SDS011;36207;51.850;21.698;2022-09-01T02:53:30;4.60;;;2.40;;
50309;SDS011;36207;51.850;21.698;2022-09-01T02:56:02;3.90;;;2.10;;
50309;SDS011;36207;51.850;21.698;2022-09-01T02:58:34;5.00;;;2.40;;
50309;SDS011;36207;51.850;21.698;2022-09-01T03:01:15;5.40;;;2.80;;
50309;SDS011;36207;51.850;21.698;2022-09-01T03:03:55;3.70;;;2.60;;
50309;SDS011;36207;51.850;21.698;2022-09-01T03:06:24;4.50;;;2.50;;
50309;SDS011;36207;51.850;21.698;2022-09-01T03:08:52;3.00;;;2.60;;
50309;SDS011;36207;51.850;21.698;2022-09-01T03:11:22;4.40;;;2.50;;
50309;SDS011;36207;51.850;21.698;2022-09-01T03:13:49;4.30;;;2.50;;
50309;SDS011;36207;51.850;21.698;2022-09-01T03:16:16;9.30;;;2.40;;
50309;SDS011;36207;51.850;21.698;2022-09-01T03:18:43;3.50;;;2.50;;
50309;SDS011;36207;51.850;21.698;2022-09-01T03:21:10;5.90;;;2.50;;
50309;SDS011;36207;51.850;21.698;2022-09-01T03:23:43;4.50;;;2.70;;
50309;SDS011;36207;51.850;21.698;2022-09-01T03:26:11;4.50;;;2.70;;
50309;SDS011;36207;51.850;21.698;2022-09-01T03:28:39;4.40;;;2.50;;
50309;SDS011;36207;51.850;21.698;2022-09-01T03:31:26;6.60;;;2.70;;
50309;SDS011;36207;51.850;21.698;2022-09-01T03:33:54;3.70;;;2.80;;
50309;SDS011;36207;51.850;21.698;2022-09-01T03:36:25;3.90;;;2.70;;
50309;SDS011;36207;51.850;21.698;2022-09-01T03:38:53;4.70;;;2.40;;
50309;SDS011;36207;51.850;21.698;2022-09-01T03:41:39;3.70;;;2.50;;
50309;SDS011;36207;51.850;21.698;2022-09-01T03:44:06;4.30;;;2.70;;
50309;SDS011;36207;51.850;21.698;2022-09-01T03:46:36;3.80;;;2.60;;
50309;SDS011;36207;51.850;21.698;2022-09-01T03:49:05;4.00;;;2.60;;
50309;SDS011;36207;51.850;21.698;2022-09-01T03:51:32;3.00;;;2.20;;
50309;SDS011;36207;51.850;21.698;2022-09-01T03:54:00;3.40;;;2.50;;
50309;SDS011;36207;51.850;21.698;2022-09-01T03:56:26;5.20;;;2.60;;
50309;SDS011;36207;51.850;21.698;2022-09-01T03:58:55;6.20;;;2.70;;
50309;SDS011;36207;51.850;21.698;2022-09-01T04:01:27;4.40;;;2.90;;
50309;SDS011;36207;51.850;21.698;2022-09-01T04:04:02;3.70;;;2.80;;
50309;SDS011;36207;51.850;21.698;2022-09-01T04:06:29;5.40;;;2.70;;
50309;SDS011;36207;51.850;21.698;2022-09-01T04:08:56;4.80;;;2.80;;
50309;SDS011;36207;51.850;21.698;2022-09-01T04:11:27;4.40;;;2.90;;
50309;SDS011;36207;51.850;21.698;2022-09-01T04:13:54;3.10;;;2.20;;
50309;SDS011;36207;51.850;21.698;2022-09-01T04:19:14;2.00;;;1.60;;
50309;SDS011;36207;51.850;21.698;2022-09-01T04:21:51;4.10;;;2.50;;
50309;SDS011;36207;51.850;21.698;2022-09-01T04:24:21;5.70;;;2.70;;
50309;SDS011;36207;51.850;21.698;2022-09-01T04:26:50;7.20;;;2.70;;
50309;SDS011;36207;51.850;21.698;2022-09-01T04:29:17;5.00;;;2.30;;
50309;SDS011;36207;51.850;21.698;2022-09-01T04:31:55;4.20;;;2.30;;
50309;SDS011;36207;51.850;21.698;2022-09-01T04:34:29;4.50;;;2.20;;
50309;SDS011;36207;51.850;21.698;2022-09-01T04:37:11;4.10;;;2.50;;
50309;SDS011;36207;51.850;21.698;2022-09-01T04:39:40;3.90;;;2.10;;
50309;SDS011;36207;51.850;21.698;2022-09-01T04:42:13;4.70;;;2.50;;
50309;SDS011;36207;51.850;21.698;2022-09-01T04:44:39;3.70;;;2.70;;
50309;SDS011;36207;51.850;21.698;2022-09-01T04:47:05;5.00;;;2.60;;
50309;SDS011;36207;51.850;21.698;2022-09-01T04:49:35;6.10;;;3.00;;
50309;SDS011;36207;51.850;21.698;2022-09-01T04:52:02;4.70;;;2.60;;
50309;SDS011;36207;51.850;21.698;2022-09-01T04:54:29;5.80;;;3.30;;
50309;SDS011;36207;51.850;21.698;2022-09-01T04:56:57;6.40;;;3.90;;
50309;SDS011;36207;51.850;21.698;2022-09-01T04:59:24;7.30;;;3.90;;
50309;SDS011;36207;51.850;21.698;2022-09-01T05:01:52;5.40;;;3.70;;
50309;SDS011;36207;51.850;21.698;2022-09-01T05:04:22;5.60;;;2.90;;
50309;SDS011;36207;51.850;21.698;2022-09-01T05:06:56;3.90;;;3.00;;
50309;SDS011;36207;51.850;21.698;2022-09-01T05:09:30;3.70;;;2.80;;
50309;SDS011;36207;51.850;21.698;2022-09-01T05:12:00;4.00;;;2.70;;
50309;SDS011;36207;51.850;21.698;2022-09-01T05:14:39;3.50;;;2.70;;
50309;SDS011;36207;51.850;21.698;2022-09-01T05:17:08;5.10;;;3.10;;
50309;SDS011;36207;51.850;21.698;2022-09-01T05:19:37;4.10;;;2.50;;
50309;SDS011;36207;51.850;21.698;2022-09-01T05:22:06;3.20;;;2.40;;
50309;SDS011;36207;51.850;21.698;2022-09-01T05:24:33;4.90;;;3.00;;
50309;SDS011;36207;51.850;21.698;2022-09-01T05:27:01;4.10;;;2.50;;
50309;SDS011;36207;51.850;21.698;2022-09-01T05:29:29;4.40;;;2.30;;
50309;SDS011;36207;51.850;21.698;2022-09-01T05:31:56;5.50;;;2.60;;
50309;SDS011;36207;51.850;21.698;2022-09-01T05:34:24;3.90;;;2.20;;
50309;SDS011;36207;51.850;21.698;2022-09-01T05:36:52;4.00;;;2.30;;
50309;SDS011;36207;51.850;21.698;2022-09-01T05:39:22;4.00;;;2.40;;
50309;SDS011;36207;51.850;21.698;2022-09-01T05:41:50;4.30;;;2.10;;
50309;SDS011;36207;51.850;21.698;2022-09-01T05:44:19;4.90;;;2.20;;
50309;SDS011;36207;51.850;21.698;2022-09-01T05:46:49;2.80;;;1.80;;
50309;SDS011;36207;51.850;21.698;2022-09-01T05:49:17;3.40;;;2.20;;
50309;SDS011;36207;51.850;21.698;2022-09-01T05:51:45;4.80;;;2.20;;
50309;SDS011;36207;51.850;21.698;2022-09-01T05:54:17;4.40;;;2.40;;
50309;SDS011;36207;51.850;21.698;2022-09-01T05:56:50;3.90;;;2.60;;
50309;SDS011;36207;51.850;21.698;2022-09-01T05:59:18;4.10;;;2.50;;
50309;SDS011;36207;51.850;21.698;2022-09-01T06:01:46;5.40;;;2.30;;
50309;SDS011;36207;51.850;21.698;2022-09-01T06:04:13;5.40;;;2.40;;
50309;SDS011;36207;51.850;21.698;2022-09-01T06:06:42;3.30;;;2.10;;
50309;SDS011;36207;51.850;21.698;2022-09-01T06:09:11;4.20;;;2.00;;
50309;SDS011;36207;51.850;21.698;2022-09-01T06:11:43;3.60;;;1.90;;
50309;SDS011;36207;51.850;21.698;2022-09-01T06:14:12;4.40;;;2.40;;
50309;SDS011;36207;51.850;21.698;2022-09-01T06:16:41;8.70;;;2.20;;
50309;SDS011;36207;51.850;21.698;2022-09-01T06:19:09;3.80;;;1.90;;
50309;SDS011;36207;51.850;21.698;2022-09-01T06:21:37;4.40;;;2.20;;
50309;SDS011;36207;51.850;21.698;2022-09-01T06:24:04;5.10;;;2.30;;
50309;SDS011;36207;51.850;21.698;2022-09-01T06:26:33;4.40;;;2.00;;
50309;SDS011;36207;51.850;21.698;2022-09-01T06:29:03;4.30;;;1.80;;
50309;SDS011;36207;51.850;21.698;2022-09-01T06:31:33;3.80;;;2.20;;
50309;SDS011;36207;51.850;21.698;2022-09-01T06:34:04;4.30;;;1.90;;
50309;SDS011;36207;51.850;21.698;2022-09-01T06:36:37;3.30;;;1.80;;
50309;SDS011;36207;51.850;21.698;2022-09-01T06:39:06;4.10;;;1.60;;
50309;SDS011;36207;51.850;21.698;2022-09-01T06:41:34;3.10;;;1.90;;
50309;SDS011;36207;51.850;21.698;2022-09-01T06:44:04;3.10;;;1.60;;
50309;SDS011;36207;51.850;21.698;2022-09-01T06:46:31;2.30;;;1.50;;
50309;SDS011;36207;51.850;21.698;2022-09-01T06:48:59;2.50;;;1.70;;
50309;SDS011;36207;51.850;21.698;2022-09-01T06:51:26;2.70;;;1.70;;
50309;SDS011;36207;51.850;21.698;2022-09-01T06:53:56;3.10;;;1.80;;
50309;SDS011;36207;51.850;21.698;2022-09-01T06:56:25;2.60;;;1.50;;
50309;SDS011;36207;51.850;21.698;2022-09-01T06:58:56;2.00;;;1.50;;
50309;SDS011;36207;51.850;21.698;2022-09-01T07:01:23;4.10;;;1.80;;
50309;SDS011;36207;51.850;21.698;2022-09-01T07:03:53;2.20;;;1.20;;
50309;SDS011;36207;51.850;21.698;2022-09-01T07:06:21;3.40;;;1.20;;
50309;SDS011;36207;51.850;21.698;2022-09-01T07:08:52;2.40;;;1.30;;
50309;SDS011;36207;51.850;21.698;2022-09-01T07:11:27;4.10;;;1.60;;
50309;SDS011;36207;51.850;21.698;2022-09-01T07:13:58;2.20;;;1.20;;
50309;SDS011;36207;51.850;21.698;2022-09-01T07:16:29;8.20;;;1.20;;
50309;SDS011;36207;51.850;21.698;2022-09-01T07:19:00;2.20;;;1.10;;
50309;SDS011;36207;51.850;21.698;2022-09-01T07:21:28;2.00;;;1.20;;
50309;SDS011;36207;51.850;21.698;2022-09-01T07:23:57;1.90;;;1.30;;
50309;SDS011;36207;51.850;21.698;2022-09-01T07:26:26;2.30;;;1.20;;
50309;SDS011;36207;51.850;21.698;2022-09-01T07:28:53;3.20;;;1.10;;
50309;SDS011;36207;51.850;21.698;2022-09-01T07:31:23;4.20;;;1.10;;
50309;SDS011;36207;51.850;21.698;2022-09-01T07:33:50;4.10;;;1.10;;
50309;SDS011;36207;51.850;21.698;2022-09-01T07:36:19;1.30;;;1.10;;
50309;SDS011;36207;51.850;21.698;2022-09-01T07:38:46;1.40;;;1.10;;
50309;SDS011;36207;51.850;21.698;2022-09-01T07:41:19;3.00;;;1.20;;
50309;SDS011;36207;51.850;21.698;2022-09-01T07:43:48;2.10;;;1.00;;
50309;SDS011;36207;51.850;21.698;2022-09-01T07:46:18;3.40;;;1.00;;
50309;SDS011;36207;51.850;21.698;2022-09-01T07:48:45;2.30;;;1.10;;
50309;SDS011;36207;51.850;21.698;2022-09-01T07:51:13;2.00;;;1.00;;
50309;SDS011;36207;51.850;21.698;2022-09-01T07:53:44;3.80;;;1.30;;
50309;SDS011;36207;51.850;21.698;2022-09-01T07:56:13;2.90;;;1.00;;
50309;SDS011;36207;51.850;21.698;2022-09-01T07:58:41;2.90;;;1.10;;
50309;SDS011;36207;51.850;21.698;2022-09-01T08:01:08;1.20;;;1.00;;
50309;SDS011;36207;51.850;21.698;2022-09-01T08:03:38;2.50;;;1.20;;
50309;SDS011;36207;51.850;21.698;2022-09-01T08:06:07;3.30;;;0.90;;
50309;SDS011;36207;51.850;21.698;2022-09-01T08:08:37;1.90;;;0.70;;
50309;SDS011;36207;51.850;21.698;2022-09-01T08:11:05;2.80;;;1.10;;
50309;SDS011;36207;51.850;21.698;2022-09-01T08:13:33;2.10;;;0.70;;
50309;SDS011;36207;51.850;21.698;2022-09-01T08:16:04;2.40;;;1.00;;
50309;SDS011;36207;51.850;21.698;2022-09-01T08:18:31;2.90;;;1.00;;
50309;SDS011;36207;51.850;21.698;2022-09-01T08:20:58;1.90;;;0.80;;
50309;SDS011;36207;51.850;21.698;2022-09-01T08:23:24;2.20;;;0.60;;
50309;SDS011;36207;51.850;21.698;2022-09-01T08:25:52;2.80;;;0.90;;
50309;SDS011;36207;51.850;21.698;2022-09-01T08:28:19;2.20;;;0.80;;
50309;SDS011;36207;51.850;21.698;2022-09-01T08:30:45;1.30;;;0.50;;
50309;SDS011;36207;51.850;21.698;2022-09-01T08:33:14;4.40;;;0.60;;
50309;SDS011;36207;51.850;21.698;2022-09-01T08:35:42;2.60;;;0.30;;
50309;SDS011;36207;51.850;21.698;2022-09-01T08:38:11;0.50;;;0.30;;
50309;SDS011;36207;51.850;21.698;2022-09-01T08:40:37;1.10;;;0.50;;
50309;SDS011;36207;51.850;21.698;2022-09-01T08:49:13;1.50;;;0.40;;
50309;SDS011;36207;51.850;21.698;2022-09-01T08:57:06;1.40;;;0.60;;
50309;SDS011;36207;51.850;21.698;2022-09-01T08:59:36;3.10;;;0.50;;
50309;SDS011;36207;51.850;21.698;2022-09-01T09:02:20;2.60;;;0.60;;
50309;SDS011;36207;51.850;21.698;2022-09-01T09:04:58;1.00;;;0.50;;
50309;SDS011;36207;51.850;21.698;2022-09-01T09:07:49;1.10;;;0.50;;
50309;SDS011;36207;51.850;21.698;2022-09-01T09:16:17;1.60;;;0.40;;
50309;SDS011;36207;51.850;21.698;2022-09-01T09:18:50;1.20;;;0.50;;
50309;SDS011;36207;51.850;21.698;2022-09-01T09:21:24;0.80;;;0.40;;
50309;SDS011;36207;51.850;21.698;2022-09-01T09:26:31;1.00;;;0.30;;
50309;SDS011;36207;51.850;21.698;2022-09-01T09:28:58;0.90;;;0.60;;
50309;SDS011;36207;51.850;21.698;2022-09-01T09:31:29;1.60;;;0.50;;
50309;SDS011;36207;51.850;21.698;2022-09-01T09:34:16;0.80;;;0.40;;
50309;SDS011;36207;51.850;21.698;2022-09-01T09:40:08;2.80;;;0.50;;
50309;SDS011;36207;51.850;21.698;2022-09-01T09:42:38;1.20;;;0.60;;
50309;SDS011;36207;51.850;21.698;2022-09-01T09:45:19;0.70;;;0.30;;
50309;SDS011;36207;51.850;21.698;2022-09-01T09:47:49;1.40;;;0.50;;
50309;SDS011;36207;51.850;21.698;2022-09-01T09:52:46;1.90;;;0.40;;
50309;SDS011;36207;51.850;21.698;2022-09-01T09:55:21;1.10;;;0.40;;
50309;SDS011;36207;51.850;21.698;2022-09-01T09:57:52;2.20;;;0.30;;
50309;SDS011;36207;51.850;21.698;2022-09-01T10:00:30;2.40;;;0.70;;
50309;SDS011;36207;51.850;21.698;2022-09-01T10:02:59;0.70;;;0.40;;
50309;SDS011;36207;51.850;21.698;2022-09-01T10:08:26;1.20;;;0.60;;
50309;SDS011;36207;51.850;21.698;2022-09-01T10:11:10;2.20;;;0.40;;
50309;SDS011;36207;51.850;21.698;2022-09-01T10:13:52;1.20;;;0.30;;
50309;SDS011;36207;51.850;21.698;2022-09-01T10:16:27;0.50;;;0.30;;
50309;SDS011;36207;51.850;21.698;2022-09-01T10:18:57;0.90;;;0.40;;
50309;SDS011;36207;51.850;21.698;2022-09-01T10:24:31;0.80;;;0.40;;
50309;SDS011;36207;51.850;21.698;2022-09-01T10:26:59;1.10;;;0.50;;
50309;SDS011;36207;51.850;21.698;2022-09-01T10:29:51;1.90;;;0.40;;
50309;SDS011;36207;51.850;21.698;2022-09-01T10:32:26;2.90;;;0.40;;
50309;SDS011;36207;51.850;21.698;2022-09-01T10:34:56;0.90;;;0.40;;
50309;SDS011;36207;51.850;21.698;2022-09-01T10:37:23;1.50;;;0.50;;
50309;SDS011;36207;51.850;21.698;2022-09-01T10:42:37;0.60;;;0.40;;
50309;SDS011;36207;51.850;21.698;2022-09-01T10:45:17;2.00;;;0.60;;
50309;SDS011;36207;51.850;21.698;2022-09-01T10:59:10;3.10;;;0.50;;
50309;SDS011;36207;51.850;21.698;2022-09-01T11:04:22;1.10;;;0.50;;
50309;SDS011;36207;51.850;21.698;2022-09-01T11:09:45;3.50;;;0.30;;
50309;SDS011;36207;51.850;21.698;2022-09-01T11:12:46;2.20;;;0.60;;
50309;SDS011;36207;51.850;21.698;2022-09-01T11:23:01;1.40;;;0.40;;
50309;SDS011;36207;51.850;21.698;2022-09-01T11:25:48;0.30;;;0.30;;
50309;SDS011;36207;51.850;21.698;2022-09-01T11:33:40;4.70;;;0.40;;
50309;SDS011;36207;51.850;21.698;2022-09-01T11:41:48;2.10;;;0.70;;
50309;SDS011;36207;51.850;21.698;2022-09-01T11:44:33;3.50;;;0.70;;
50309;SDS011;36207;51.850;21.698;2022-09-01T11:47:35;0.80;;;0.50;;
50309;SDS011;36207;51.850;21.698;2022-09-01T11:50:06;0.80;;;0.60;;
50309;SDS011;36207;51.850;21.698;2022-09-01T11:52:50;1.40;;;0.50;;
50309;SDS011;36207;51.850;21.698;2022-09-01T11:55:29;0.90;;;0.40;;
50309;SDS011;36207;51.850;21.698;2022-09-01T12:03:55;1.00;;;0.20;;
50309;SDS011;36207;51.850;21.698;2022-09-01T12:06:25;0.30;;;0.30;;
50309;SDS011;36207;51.850;21.698;2022-09-01T12:08:57;2.10;;;0.40;;
50309;SDS011;36207;51.850;21.698;2022-09-01T12:11:31;0.90;;;0.50;;
50309;SDS011;36207;51.850;21.698;2022-09-01T12:16:31;0.50;;;0.30;;
50309;SDS011;36207;51.850;21.698;2022-09-01T12:19:01;0.70;;;0.30;;
50309;SDS011;36207;51.850;21.698;2022-09-01T12:21:31;0.40;;;0.30;;
50309;SDS011;36207;51.850;21.698;2022-09-01T12:24:15;2.20;;;0.50;;
50309;SDS011;36207;51.850;21.698;2022-09-01T12:26:43;1.30;;;0.50;;
50309;SDS011;36207;51.850;21.698;2022-09-01T12:29:10;1.70;;;0.60;;
50309;SDS011;36207;51.850;21.698;2022-09-01T12:31:41;1.00;;;0.50;;
50309;SDS011;36207;51.850;21.698;2022-09-01T12:34:26;0.50;;;0.30;;
50309;SDS011;36207;51.850;21.698;2022-09-01T12:39:46;0.70;;;0.30;;
50309;SDS011;36207;51.850;21.698;2022-09-01T12:44:46;6.10;;;0.60;;
50309;SDS011;36207;51.850;21.698;2022-09-01T12:50:05;0.60;;;0.50;;
50309;SDS011;36207;51.850;21.698;2022-09-01T12:52:45;0.90;;;0.30;;
50309;SDS011;36207;51.850;21.698;2022-09-01T12:55:17;0.50;;;0.20;;
50309;SDS011;36207;51.850;21.698;2022-09-01T12:57:47;2.00;;;0.40;;
50309;SDS011;36207;51.850;21.698;2022-09-01T13:00:18;2.00;;;0.60;;
50309;SDS011;36207;51.850;21.698;2022-09-01T13:05:31;0.60;;;0.40;;
50309;SDS011;36207;51.850;21.698;2022-09-01T13:08:03;4.30;;;0.60;;
50309;SDS011;36207;51.850;21.698;2022-09-01T13:10:43;3.50;;;0.70;;
50309;SDS011;36207;51.850;21.698;2022-09-01T13:13:12;0.60;;;0.40;;
50309;SDS011;36207;51.850;21.698;2022-09-01T13:15:42;2.30;;;0.50;;
50309;SDS011;36207;51.850;21.698;2022-09-01T13:18:15;1.40;;;0.50;;
50309;SDS011;36207;51.850;21.698;2022-09-01T13:20:43;0.50;;;0.40;;
50309;SDS011;36207;51.850;21.698;2022-09-01T13:23:09;1.70;;;0.50;;
50309;SDS011;36207;51.850;21.698;2022-09-01T13:25:37;0.50;;;0.40;;
50309;SDS011;36207;51.850;21.698;2022-09-01T13:28:11;1.70;;;0.40;;
50309;SDS011;36207;51.850;21.698;2022-09-01T13:30:39;4.90;;;1.90;;
50309;SDS011;36207;51.850;21.698;2022-09-01T13:33:08;3.30;;;0.90;;
50309;SDS011;36207;51.850;21.698;2022-09-01T13:35:37;0.70;;;0.50;;
50309;SDS011;36207;51.850;21.698;2022-09-01T13:38:04;0.70;;;0.40;;
50309;SDS011;36207;51.850;21.698;2022-09-01T13:40:30;0.40;;;0.40;;
50309;SDS011;36207;51.850;21.698;2022-09-01T13:42:57;0.70;;;0.50;;
50309;SDS011;36207;51.850;21.698;2022-09-01T13:45:23;2.10;;;0.40;;
50309;SDS011;36207;51.850;21.698;2022-09-01T13:47:50;2.40;;;0.30;;
50309;SDS011;36207;51.850;21.698;2022-09-01T13:50:19;1.30;;;0.40;;
50309;SDS011;36207;51.850;21.698;2022-09-01T13:52:53;0.60;;;0.50;;
50309;SDS011;36207;51.850;21.698;2022-09-01T13:55:25;2.80;;;1.60;;
50309;SDS011;36207;51.850;21.698;2022-09-01T13:57:55;3.40;;;2.00;;
50309;SDS011;36207;51.850;21.698;2022-09-01T14:00:30;1.20;;;0.70;;
50309;SDS011;36207;51.850;21.698;2022-09-01T14:03:05;3.80;;;0.60;;
50309;SDS011;36207;51.850;21.698;2022-09-01T14:05:46;0.50;;;0.30;;
50309;SDS011;36207;51.850;21.698;2022-09-01T14:08:15;1.40;;;0.40;;
50309;SDS011;36207;51.850;21.698;2022-09-01T14:10:45;1.40;;;0.50;;
50309;SDS011;36207;51.850;21.698;2022-09-01T14:13:13;0.50;;;0.40;;
50309;SDS011;36207;51.850;21.698;2022-09-01T14:15:40;2.90;;;0.60;;
50309;SDS011;36207;51.850;21.698;2022-09-01T14:18:07;1.40;;;0.40;;
50309;SDS011;36207;51.850;21.698;2022-09-01T14:20:35;1.80;;;0.60;;
50309;SDS011;36207;51.850;21.698;2022-09-01T14:23:04;1.20;;;0.60;;
50309;SDS011;36207;51.850;21.698;2022-09-01T14:25:36;1.30;;;0.70;;
50309;SDS011;36207;51.850;21.698;2022-09-01T14:28:07;1.90;;;0.40;;
50309;SDS011;36207;51.850;21.698;2022-09-01T14:30:33;0.60;;;0.40;;
50309;SDS011;36207;51.850;21.698;2022-09-01T14:33:00;1.00;;;0.50;;
50309;SDS011;36207;51.850;21.698;2022-09-01T14:35:28;1.70;;;0.60;;
50309;SDS011;36207;51.850;21.698;2022-09-01T14:37:58;0.90;;;0.60;;
50309;SDS011;36207;51.850;21.698;2022-09-01T14:40:25;1.30;;;0.50;;
50309;SDS011;36207;51.850;21.698;2022-09-01T14:42:53;1.30;;;0.50;;
50309;SDS011;36207;51.850;21.698;2022-09-01T14:45:24;2.10;;;0.60;;
50309;SDS011;36207;51.850;21.698;2022-09-01T14:47:54;0.50;;;0.30;;
50309;SDS011;36207;51.850;21.698;2022-09-01T14:50:23;1.10;;;0.40;;
50309;SDS011;36207;51.850;21.698;2022-09-01T14:52:51;1.50;;;0.40;;
50309;SDS011;36207;51.850;21.698;2022-09-01T14:55:24;3.00;;;0.70;;
50309;SDS011;36207;51.850;21.698;2022-09-01T14:57:53;0.70;;;0.50;;
50309;SDS011;36207;51.850;21.698;2022-09-01T15:00:20;2.40;;;0.60;;
50309;SDS011;36207;51.850;21.698;2022-09-01T15:02:49;0.70;;;0.40;;
50309;SDS011;36207;51.850;21.698;2022-09-01T15:05:17;3.20;;;0.60;;
50309;SDS011;36207;51.850;21.698;2022-09-01T15:07:44;2.10;;;0.90;;
50309;SDS011;36207;51.850;21.698;2022-09-01T15:10:12;2.30;;;0.90;;
50309;SDS011;36207;51.850;21.698;2022-09-01T15:12:41;3.30;;;0.60;;
50309;SDS011;36207;51.850;21.698;2022-09-01T15:15:08;0.50;;;0.50;;
50309;SDS011;36207;51.850;21.698;2022-09-01T15:17:35;1.20;;;0.70;;
50309;SDS011;36207;51.850;21.698;2022-09-01T15:20:02;2.10;;;0.70;;
50309;SDS011;36207;51.850;21.698;2022-09-01T15:22:49;5.60;;;1.30;;
50309;SDS011;36207;51.850;21.698;2022-09-01T15:25:16;3.40;;;1.40;;
50309;SDS011;36207;51.850;21.698;2022-09-01T15:27:43;3.70;;;2.20;;
50309;SDS011;36207;51.850;21.698;2022-09-01T15:30:12;1.10;;;0.90;;
50309;SDS011;36207;51.850;21.698;2022-09-01T15:32:43;6.20;;;1.10;;
50309;SDS011;36207;51.850;21.698;2022-09-01T15:35:11;7.70;;;1.20;;
50309;SDS011;36207;51.850;21.698;2022-09-01T15:37:38;3.30;;;0.60;;
50309;SDS011;36207;51.850;21.698;2022-09-01T15:40:05;6.00;;;1.30;;
50309;SDS011;36207;51.850;21.698;2022-09-01T15:42:33;1.00;;;0.50;;
50309;SDS011;36207;51.850;21.698;2022-09-01T15:45:02;5.60;;;1.30;;
50309;SDS011;36207;51.850;21.698;2022-09-01T15:47:31;0.70;;;0.60;;
50309;SDS011;36207;51.850;21.698;2022-09-01T15:49:57;2.60;;;0.70;;
50309;SDS011;36207;51.850;21.698;2022-09-01T15:52:24;2.40;;;0.80;;
50309;SDS011;36207;51.850;21.698;2022-09-01T15:54:52;1.20;;;0.70;;
50309;SDS011;36207;51.850;21.698;2022-09-01T15:57:18;2.40;;;0.80;;
50309;SDS011;36207;51.850;21.698;2022-09-01T15:59:45;0.60;;;0.60;;
50309;SDS011;36207;51.850;21.698;2022-09-01T16:02:11;2.50;;;1.30;;
50309;SDS011;36207;51.850;21.698;2022-09-01T16:04:42;1.50;;;0.50;;
50309;SDS011;36207;51.850;21.698;2022-09-01T16:07:09;1.20;;;0.40;;
50309;SDS011;36207;51.850;21.698;2022-09-01T16:09:36;1.70;;;0.60;;
50309;SDS011;36207;51.850;21.698;2022-09-01T16:12:02;0.50;;;0.50;;
50309;SDS011;36207;51.850;21.698;2022-09-01T16:14:30;4.00;;;0.70;;
50309;SDS011;36207;51.850;21.698;2022-09-01T16:19:41;3.10;;;0.60;;
50309;SDS011;36207;51.850;21.698;2022-09-01T16:22:24;0.80;;;0.40;;
50309;SDS011;36207;51.850;21.698;2022-09-01T16:24:54;1.80;;;0.50;;
50309;SDS011;36207;51.850;21.698;2022-09-01T16:27:33;2.20;;;0.70;;
50309;SDS011;36207;51.850;21.698;2022-09-01T16:30:06;0.80;;;0.60;;